createdAt,value
2019-06-26T00:01:12.266Z,95810.91
2019-06-26T00:03:42.423Z,95812.66
2019-06-26T00:06:12.680Z,95806.44
2019-06-26T00:08:42.953Z,95802.12
2019-06-26T00:11:12.990Z,95799.71
2019-06-26T00:13:43.117Z,95805.87
2019-06-26T00:16:13.470Z,95809.14
2019-06-26T00:18:43.756Z,95795.74
2019-06-26T00:21:13.809Z,95794.16
2019-06-26T00:23:44.157Z,95795.29
2019-06-26T00:26:14.237Z,95794.49
2019-06-26T00:28:44.283Z,95798.70
2019-06-26T00:31:14.529Z,95797.06
2019-06-26T00:33:44.777Z,95794.75
2019-06-26T00:36:14.947Z,95798.92
2019-06-26T00:38:44.962Z,95801.98
2019-06-26T00:41:15.354Z,95794.52
2019-06-26T00:43:45.624Z,95797.36
2019-06-26T00:46:15.611Z,95802.44
2019-06-26T00:48:45.551Z,95800.87
2019-06-26T00:51:15.900Z,95798.73
2019-06-26T00:53:46.240Z,95800.59
2019-06-26T00:56:16.296Z,95791.81
2019-06-26T00:58:46.444Z,95798.22
2019-06-26T01:01:16.852Z,95796.09
2019-06-26T01:03:48.054Z,95790.67
2019-06-26T01:06:52.537Z,95786.70
2019-06-26T01:09:22.814Z,95775.48
2019-06-26T01:11:52.768Z,95772.52
2019-06-26T01:14:22.808Z,95773.92
2019-06-26T01:16:53.333Z,95769.92
2019-06-26T01:19:23.719Z,95776.00
2019-06-26T01:21:53.746Z,95778.52
2019-06-26T01:24:23.746Z,95784.38
2019-06-26T01:26:54.090Z,95778.97
2019-06-26T01:29:24.285Z,95785.98
2019-06-26T01:31:54.294Z,95799.71
2019-06-26T01:34:24.341Z,95791.13
2019-06-26T01:36:54.567Z,95791.70
2019-06-26T01:39:24.807Z,95794.64
2019-06-26T01:41:54.819Z,95798.65
2019-06-26T01:44:25.127Z,95796.14
2019-06-26T01:46:55.306Z,95800.28
2019-06-26T01:49:25.410Z,95798.41
2019-06-26T01:51:55.629Z,95795.70
2019-06-26T01:54:25.984Z,95800.87
2019-06-26T01:56:56.030Z,95803.34
2019-06-26T01:59:26.071Z,95803.06
2019-06-26T02:01:56.298Z,95800.87
2019-06-26T02:04:26.759Z,95800.20
2019-06-26T02:06:56.917Z,95803.18
2019-06-26T02:09:26.973Z,95799.14
2019-06-26T02:12:00.338Z,95800.58
2019-06-26T02:14:31.600Z,95804.41
2019-06-26T02:17:01.004Z,95804.34
2019-06-26T02:19:31.034Z,95801.20
2019-06-26T02:22:01.300Z,95803.95
2019-06-26T02:24:31.582Z,95806.82
2019-06-26T02:27:01.730Z,95812.58
2019-06-26T02:29:31.725Z,95808.15
2019-06-26T02:32:01.860Z,95811.78
2019-06-26T02:34:32.146Z,95809.56
2019-06-26T02:37:02.183Z,95800.45
2019-06-26T02:39:32.109Z,95801.08
2019-06-26T02:42:02.400Z,95800.21
2019-06-26T02:44:51.275Z,95804.45
2019-06-26T02:47:18.246Z,95803.64
2019-06-26T02:49:36.323Z,95813.27
2019-06-26T02:52:06.711Z,95803.91
2019-06-26T02:54:36.927Z,95806.67
2019-06-26T02:57:07.071Z,95800.35
2019-06-26T02:59:37.178Z,95800.09
2019-06-26T03:02:07.375Z,95800.59
2019-06-26T03:04:37.503Z,95806.22
2019-06-26T03:07:07.824Z,95817.03
2019-06-26T03:09:38.125Z,95808.91
2019-06-26T03:12:08.280Z,95803.76
2019-06-26T03:14:38.247Z,95808.95
2019-06-26T03:17:08.597Z,95815.80
2019-06-26T03:19:38.736Z,95821.89
2019-06-26T03:22:08.712Z,95827.87
2019-06-26T03:24:38.743Z,95829.22
2019-06-26T03:27:09.350Z,95824.04
2019-06-26T03:29:39.674Z,95830.45
2019-06-26T03:32:09.713Z,95825.64
2019-06-26T03:34:39.783Z,95831.69
2019-06-26T03:37:09.891Z,95833.48
2019-06-26T03:39:40.112Z,95828.52
2019-06-26T03:42:10.216Z,95833.38
2019-06-26T03:44:40.441Z,95831.36
2019-06-26T03:47:10.535Z,95840.05
2019-06-26T03:49:40.656Z,95838.34
2019-06-26T03:52:10.784Z,95836.52
2019-06-26T03:54:41.030Z,95845.20
2019-06-26T03:57:10.926Z,95839.49
2019-06-26T03:59:41.043Z,95846.71
2019-06-26T04:02:11.305Z,95850.50
2019-06-26T04:04:41.513Z,95845.77
2019-06-26T04:07:11.489Z,95850.42
2019-06-26T04:09:41.594Z,95851.70
2019-06-26T04:12:11.918Z,95844.56
2019-06-26T04:14:41.885Z,95841.11
2019-06-26T04:17:11.927Z,95843.13
2019-06-26T04:19:41.825Z,95849.22
2019-06-26T04:22:12.150Z,95853.92
2019-06-26T04:24:42.197Z,95850.05
2019-06-26T04:27:12.305Z,95853.06
2019-06-26T04:29:42.580Z,95706.09
2019-06-26T04:32:12.655Z,95860.56
2019-06-26T04:34:42.660Z,95849.97
2019-06-26T04:37:12.999Z,95850.20
2019-06-26T04:39:43.325Z,95850.14
2019-06-26T04:42:13.413Z,95850.80
2019-06-26T04:44:43.409Z,95860.89
2019-06-26T04:47:13.647Z,95859.31
2019-06-26T04:49:43.885Z,95861.30
2019-06-26T04:52:13.880Z,95860.51
2019-06-26T04:54:43.878Z,95853.95
2019-06-26T04:57:13.937Z,95859.42
2019-06-26T04:59:44.233Z,95854.75
2019-06-26T05:02:14.399Z,95859.09
2019-06-26T05:04:44.713Z,95854.55
2019-06-26T05:07:14.826Z,95859.39
2019-06-26T05:09:44.858Z,95857.00
2019-06-26T05:12:15.179Z,95860.29
2019-06-26T05:14:45.488Z,95862.67
2019-06-26T05:17:15.468Z,95860.11
2019-06-26T05:19:45.425Z,95858.52
2019-06-26T05:22:15.658Z,95860.00
2019-06-26T05:24:46.602Z,95862.77
2019-06-26T05:27:16.704Z,95863.48
2019-06-26T05:29:46.818Z,95866.55
2019-06-26T05:32:17.212Z,95872.27
2019-06-26T05:34:47.479Z,95880.95
2019-06-26T05:37:17.460Z,95880.20
2019-06-26T05:39:47.533Z,95875.97
2019-06-26T05:42:17.736Z,95878.92
2019-06-26T05:44:47.761Z,95881.52
2019-06-26T05:47:18.180Z,95880.23
2019-06-26T05:49:48.468Z,95882.68
2019-06-26T05:52:18.725Z,95875.28
2019-06-26T05:54:48.649Z,95875.68
2019-06-26T05:57:18.986Z,95876.49
2019-06-26T05:59:49.321Z,95888.47
2019-06-26T06:02:19.486Z,95886.15
2019-06-26T06:04:49.529Z,95887.60
2019-06-26T06:07:20.010Z,95884.16
2019-06-26T06:09:50.275Z,95883.02
2019-06-26T06:12:20.270Z,95874.55
2019-06-26T06:14:50.371Z,95888.91
2019-06-26T06:17:20.662Z,95896.26
2019-06-26T06:19:50.971Z,95890.31
2019-06-26T06:22:21.078Z,95891.95
2019-06-26T06:24:51.303Z,95893.92
2019-06-26T06:27:21.276Z,95895.57
2019-06-26T06:29:51.315Z,95893.07
2019-06-26T06:32:21.678Z,95893.11
2019-06-26T06:34:51.901Z,95890.84
2019-06-26T06:37:21.887Z,95893.41
2019-06-26T06:39:51.938Z,95896.38
2019-06-26T06:42:22.025Z,95902.47
2019-06-26T06:44:52.236Z,95901.92
2019-06-26T06:47:22.303Z,95899.89
2019-06-26T06:49:52.374Z,95898.12
2019-06-26T06:52:22.497Z,95898.13
2019-06-26T06:54:52.640Z,95906.23
2019-06-26T06:57:22.595Z,95898.36
2019-06-26T06:59:52.672Z,95903.31
2019-06-26T07:02:23.019Z,95899.23
2019-06-26T07:04:52.929Z,95902.33
2019-06-26T07:07:23.165Z,95906.91
2019-06-26T07:09:53.422Z,95894.53
2019-06-26T07:12:23.602Z,95882.92
2019-06-26T07:14:53.611Z,95889.30
2019-06-26T07:17:23.864Z,95896.38
2019-06-26T07:19:54.162Z,95894.17
2019-06-26T07:22:24.076Z,95892.41
2019-06-26T07:24:54.135Z,95879.36
2019-06-26T07:27:24.429Z,95881.09
2019-06-26T07:29:54.763Z,95882.83
2019-06-26T07:32:24.917Z,95884.33
2019-06-26T07:34:54.953Z,95877.95
2019-06-26T07:37:25.211Z,95888.73
2019-06-26T07:40:00.290Z,95883.81
2019-06-26T07:42:27.245Z,95882.70
2019-06-26T07:44:57.224Z,95885.60
2019-06-26T07:47:41.908Z,95884.88
2019-06-26T07:49:59.506Z,95887.19
2019-06-26T07:52:29.405Z,95896.36
2019-06-26T07:54:59.413Z,95888.84
2019-06-26T07:57:29.477Z,95732.44
2019-06-26T07:59:59.801Z,95898.27
2019-06-26T08:02:29.785Z,95900.06
2019-06-26T08:04:59.757Z,95896.58
2019-06-26T08:07:30.048Z,95891.30
2019-06-26T08:10:00.316Z,95889.68
2019-06-26T08:12:30.371Z,95889.20
2019-06-26T08:15:00.390Z,95884.86
2019-06-26T08:17:30.598Z,95883.23
2019-06-26T08:20:00.945Z,95879.84
2019-06-26T08:22:30.925Z,95882.36
2019-06-26T08:25:01.133Z,95887.86
2019-06-26T08:27:31.184Z,95886.56
2019-06-26T08:30:01.249Z,95888.93
2019-06-26T08:32:31.673Z,95894.88
2019-06-26T08:35:02.048Z,95899.09
2019-06-26T08:37:32.278Z,95895.30
2019-06-26T08:40:02.421Z,95886.38
2019-06-26T08:42:32.632Z,95896.25
2019-06-26T08:45:02.968Z,95888.13
2019-06-26T08:47:33.158Z,95895.63
2019-06-26T08:50:03.325Z,95896.91
2019-06-26T08:52:33.749Z,95902.28
2019-06-26T08:55:04.052Z,95899.70
2019-06-26T08:57:34.119Z,95903.85
2019-06-26T09:00:04.682Z,95896.47
2019-06-26T09:02:34.994Z,95898.02
2019-06-26T09:05:06.703Z,95903.17
2019-06-26T09:07:37.010Z,95907.80
2019-06-26T09:10:07.603Z,95900.45
2019-06-26T09:12:37.799Z,95907.12
2019-06-26T09:15:08.165Z,95903.41
2019-06-26T09:17:38.420Z,95898.81
2019-06-26T09:20:10.149Z,95898.72
2019-06-26T09:22:40.165Z,95904.84
2019-06-26T09:25:21.487Z,95904.77
2019-06-26T09:27:43.052Z,95896.91
2019-06-26T09:30:13.681Z,95902.20
2019-06-26T09:32:43.706Z,95902.22
2019-06-26T09:35:15.366Z,95899.18
2019-06-26T09:37:45.627Z,95894.27
2019-06-26T09:40:17.188Z,95897.83
2019-06-26T09:42:47.396Z,95897.41
2019-06-26T09:45:17.821Z,95894.40
2019-06-26T09:47:47.832Z,95887.33
2019-06-26T09:50:18.391Z,95890.41
2019-06-26T09:52:48.656Z,95897.09
2019-06-26T09:55:18.926Z,95892.36
2019-06-26T09:57:48.974Z,95890.15
2019-06-26T10:00:20.249Z,95886.22
2019-06-26T10:02:50.509Z,95887.52
2019-06-26T10:05:21.025Z,95893.19
2019-06-26T10:07:51.026Z,95884.98
2019-06-26T10:10:21.737Z,95889.14
2019-06-26T10:12:52.236Z,95887.23
2019-06-26T10:15:22.721Z,95886.86
2019-06-26T10:17:52.951Z,95882.92
2019-06-26T10:20:23.163Z,95882.23
2019-06-26T10:22:53.523Z,95878.74
2019-06-26T10:25:23.545Z,95870.80
2019-06-26T10:27:54.114Z,95872.50
2019-06-26T10:30:24.461Z,95866.41
2019-06-26T10:32:54.880Z,95868.42
2019-06-26T10:35:25.106Z,95864.13
2019-06-26T10:37:55.386Z,95853.17
2019-06-26T10:40:25.678Z,95854.34
2019-06-26T10:42:55.832Z,95864.45
2019-06-26T10:45:26.012Z,95864.63
2019-06-26T10:47:56.226Z,95855.92
2019-06-26T10:50:26.697Z,95855.44
2019-06-26T10:52:56.788Z,95865.13
2019-06-26T10:55:27.004Z,95861.98
2019-06-26T10:57:57.270Z,95860.66
2019-06-26T11:00:29.283Z,95860.93
2019-06-26T11:02:59.298Z,95858.73
2019-06-26T11:05:29.678Z,95858.33
2019-06-26T11:07:59.651Z,95859.64
2019-06-26T11:10:29.599Z,95859.27
2019-06-26T11:13:00.040Z,95857.98
2019-06-26T11:15:30.350Z,95856.25
2019-06-26T11:18:00.349Z,95842.67
2019-06-26T11:20:30.503Z,95854.58
2019-06-26T11:23:00.844Z,95851.11
2019-06-26T11:25:31.027Z,95859.87
2019-06-26T11:28:01.061Z,95847.74
2019-06-26T11:30:31.244Z,95848.36
2019-06-26T11:33:01.667Z,95842.82
2019-06-26T11:35:32.052Z,95844.14
2019-06-26T11:38:02.042Z,95838.43
2019-06-26T11:40:32.144Z,95833.91
2019-06-26T11:43:02.345Z,95842.44
2019-06-26T11:45:32.472Z,95843.56
2019-06-26T11:48:02.801Z,95841.50
2019-06-26T11:50:32.896Z,95835.72
2019-06-26T11:53:03.042Z,95843.70
2019-06-26T11:55:33.148Z,95838.37
2019-06-26T11:58:03.464Z,95845.64
2019-06-26T12:00:33.729Z,95841.91
2019-06-26T12:03:05.669Z,95844.09
2019-06-26T12:05:35.577Z,95845.07
2019-06-26T12:08:05.843Z,95845.48
2019-06-26T12:10:35.958Z,95832.20
2019-06-26T12:13:06.008Z,95827.89
2019-06-26T12:15:36.023Z,95831.06
2019-06-26T12:18:06.368Z,95825.73
2019-06-26T12:20:36.657Z,95827.17
2019-06-26T12:23:06.565Z,95826.11
2019-06-26T12:25:36.662Z,95829.84
2019-06-26T12:28:07.032Z,95824.06
2019-06-26T12:30:37.149Z,95827.99
2019-06-26T12:33:07.482Z,95821.83
2019-06-26T12:35:37.821Z,95812.73
2019-06-26T12:38:07.971Z,95812.03
2019-06-26T12:40:38.011Z,95810.09
2019-06-26T12:43:08.253Z,95799.69
2019-06-26T12:45:38.461Z,95796.06
2019-06-26T12:48:08.680Z,95791.03
2019-06-26T12:50:38.705Z,95795.21
2019-06-26T12:53:08.977Z,95793.96
2019-06-26T12:55:39.243Z,95786.91
2019-06-26T12:58:14.142Z,95789.02
2019-06-26T13:00:41.254Z,95785.62
2019-06-26T13:03:11.452Z,95785.06
2019-06-26T13:05:41.777Z,95778.45
2019-06-26T13:08:11.825Z,95775.59
2019-06-26T13:10:49.831Z,95772.66
2019-06-26T13:13:13.778Z,95768.34
2019-06-26T13:15:44.230Z,95776.09
2019-06-26T13:18:14.289Z,95767.81
2019-06-26T13:20:52.894Z,95777.95
2019-06-26T13:23:16.428Z,95776.45
2019-06-26T13:25:46.835Z,95771.52
2019-06-26T13:28:16.816Z,95778.12
2019-06-26T13:30:46.822Z,95770.16
2019-06-26T13:33:17.170Z,95772.33
2019-06-26T13:35:47.282Z,95765.78
2019-06-26T13:38:17.397Z,95766.80
2019-06-26T13:40:47.471Z,95759.17
2019-06-26T13:43:17.786Z,95765.61
2019-06-26T13:45:47.818Z,95772.38
2019-06-26T13:48:18.249Z,95766.36
2019-06-26T13:50:48.339Z,95765.41
2019-06-26T13:53:18.400Z,95770.20
2019-06-26T13:55:48.398Z,95772.37
2019-06-26T13:58:18.707Z,95775.94
2019-06-26T14:00:48.984Z,95777.52
2019-06-26T14:03:19.043Z,95774.22
2019-06-26T14:05:49.154Z,95779.10
2019-06-26T14:08:19.526Z,95772.20
2019-06-26T14:10:49.714Z,95779.88
2019-06-26T14:13:19.532Z,95792.69
2019-06-26T14:15:49.582Z,95790.41
2019-06-26T14:18:19.783Z,95786.91
2019-06-26T14:20:50.090Z,95795.43
2019-06-26T14:23:20.238Z,95794.05
2019-06-26T14:25:50.331Z,95808.14
2019-06-26T14:28:20.350Z,95807.72
2019-06-26T14:30:50.588Z,95802.69
2019-06-26T14:33:20.751Z,95807.23
2019-06-26T14:35:51.026Z,95809.08
2019-06-26T14:38:21.166Z,95800.45
2019-06-26T14:40:51.168Z,95796.98
2019-06-26T14:43:21.403Z,95799.88
2019-06-26T14:45:51.798Z,95802.59
2019-06-26T14:48:21.792Z,95812.66
2019-06-26T14:50:52.270Z,95810.78
2019-06-26T14:53:22.435Z,95830.23
2019-06-26T14:55:54.620Z,95830.23
2019-06-26T14:58:24.657Z,95846.58
2019-06-26T15:00:54.780Z,95857.39
2019-06-26T15:03:30.868Z,95868.22
2019-06-26T15:06:15.344Z,95877.16
2019-06-26T15:08:32.810Z,95871.55
2019-06-26T15:11:03.217Z,95879.72
2019-06-26T15:13:33.272Z,95894.09
2019-06-26T15:16:03.190Z,95903.88
2019-06-26T15:18:33.476Z,95892.81
2019-06-26T15:21:04.062Z,95882.00
2019-06-26T15:23:34.130Z,95875.08
2019-06-26T15:26:04.076Z,95862.19
2019-06-26T15:28:34.359Z,95867.36
2019-06-26T15:31:04.489Z,95863.45
2019-06-26T15:33:36.687Z,95857.14
2019-06-26T15:36:06.354Z,95853.30
2019-06-26T15:38:36.592Z,95667.91
2019-06-26T15:41:06.738Z,95864.84
2019-06-26T15:43:36.773Z,95863.13
2019-06-26T15:46:06.863Z,95855.28
2019-06-26T15:48:37.200Z,95865.80
2019-06-26T15:51:07.595Z,95863.52
2019-06-26T15:53:37.597Z,95872.34
2019-06-26T15:56:07.565Z,95871.48
2019-06-26T15:58:37.885Z,95866.98
2019-06-26T16:01:08.106Z,95859.63
2019-06-26T16:03:38.111Z,95844.92
2019-06-26T16:06:08.166Z,95857.71
2019-06-26T16:08:38.415Z,95859.28
2019-06-26T16:11:08.590Z,95858.59
2019-06-26T16:13:38.637Z,95861.50
2019-06-26T16:16:08.805Z,95863.52
2019-06-26T16:18:43.765Z,95865.57
2019-06-26T16:21:14.128Z,95860.52
2019-06-26T16:23:44.313Z,95864.64
2019-06-26T16:26:14.430Z,95854.96
2019-06-26T16:28:44.486Z,95862.45
2019-06-26T16:31:14.467Z,95857.03
2019-06-26T16:33:44.757Z,95865.24
2019-06-26T16:36:14.815Z,95866.36
2019-06-26T16:38:44.745Z,95878.47
2019-06-26T16:41:15.406Z,95889.62
2019-06-26T16:43:45.485Z,95890.69
2019-06-26T16:46:15.769Z,95886.27
2019-06-26T16:48:45.732Z,95886.95
2019-06-26T16:51:15.751Z,95879.54
2019-06-26T16:53:45.926Z,95881.69
2019-06-26T16:56:16.181Z,95885.36
2019-06-26T16:58:46.145Z,95884.05
2019-06-26T17:01:16.288Z,95884.27
2019-06-26T17:03:46.514Z,95878.84
2019-06-26T17:06:16.647Z,95880.64
2019-06-26T17:08:46.902Z,95881.32
2019-06-26T17:11:17.077Z,95870.95
2019-06-26T17:13:47.370Z,95881.23
2019-06-26T17:16:17.448Z,95873.11
2019-06-26T17:18:47.677Z,95867.91
2019-06-26T17:21:18.051Z,95871.64
2019-06-26T17:23:48.088Z,95861.95
2019-06-26T17:26:18.210Z,95861.27
2019-06-26T17:28:48.429Z,95859.23
2019-06-26T17:31:18.688Z,95853.02
2019-06-26T17:33:48.662Z,95846.39
2019-06-26T17:36:18.674Z,95843.44
2019-06-26T17:38:48.843Z,95843.09
2019-06-26T17:41:19.240Z,95840.05
2019-06-26T17:43:49.333Z,95837.08
2019-06-26T17:46:19.514Z,95832.48
2019-06-26T17:48:49.489Z,95832.39
2019-06-26T17:51:19.485Z,95827.09
2019-06-26T17:53:49.767Z,95833.53
2019-06-26T17:56:19.888Z,95838.27
2019-06-26T17:58:49.828Z,95844.10
2019-06-26T18:01:19.727Z,95852.36
2019-06-26T18:03:50.026Z,95857.77
2019-06-26T18:06:20.487Z,95859.91
2019-06-26T18:08:50.656Z,95863.19
2019-06-26T18:11:20.767Z,95866.91
2019-06-26T18:13:51.053Z,95869.50
2019-06-26T18:16:21.326Z,95873.66
2019-06-26T18:18:51.369Z,95883.69
2019-06-26T18:21:21.657Z,95885.94
2019-06-26T18:23:52.808Z,95894.23
2019-06-26T18:26:22.957Z,95901.75
2019-06-26T18:28:52.954Z,95908.73
2019-06-26T18:31:23.229Z,95912.64
2019-06-26T18:33:53.528Z,95911.42
2019-06-26T18:36:23.567Z,95915.34
2019-06-26T18:38:53.628Z,95924.05
2019-06-26T18:41:23.994Z,95923.86
2019-06-26T18:43:54.210Z,95926.25
2019-06-26T18:46:25.067Z,95929.75
2019-06-26T18:48:55.215Z,95934.90
2019-06-26T18:51:25.567Z,95937.97
2019-06-26T18:53:55.738Z,95941.13
2019-06-26T18:56:25.855Z,95941.23
2019-06-26T18:58:55.928Z,95951.72
2019-06-26T19:01:26.352Z,95949.30
2019-06-26T19:03:56.564Z,95955.29
2019-06-26T19:06:26.832Z,95950.86
2019-06-26T19:08:57.131Z,95946.83
2019-06-26T19:11:27.402Z,95948.73
2019-06-26T19:13:57.435Z,95941.63
2019-06-26T19:16:27.632Z,95942.01
2019-06-26T19:18:58.066Z,95939.98
2019-06-26T19:21:28.243Z,95945.51
2019-06-26T19:24:09.449Z,95947.81
2019-06-26T19:26:30.253Z,95948.61
2019-06-26T19:29:00.484Z,95949.59
2019-06-26T19:31:30.567Z,95948.00
2019-06-26T19:34:00.599Z,95939.94
2019-06-26T19:36:30.601Z,95941.53
2019-06-26T19:39:00.751Z,95944.67
2019-06-26T19:41:30.904Z,95946.64
2019-06-26T19:44:01.072Z,95942.75
2019-06-26T19:46:31.122Z,95945.69
2019-06-26T19:49:01.159Z,95944.02
2019-06-26T19:51:31.357Z,95954.36
2019-06-26T19:54:01.581Z,95949.64
2019-06-26T19:56:31.533Z,95948.74
2019-06-26T19:59:01.610Z,95948.23
2019-06-26T20:01:31.750Z,95947.16
2019-06-26T20:04:02.068Z,95944.92
2019-06-26T20:06:32.222Z,95944.04
2019-06-26T20:09:02.071Z,95947.06
2019-06-26T20:11:32.225Z,95945.41
2019-06-26T20:14:02.466Z,95940.88
2019-06-26T20:16:32.454Z,95941.84
2019-06-26T20:19:02.369Z,95940.28
2019-06-26T20:21:32.516Z,95935.42
2019-06-26T20:24:02.510Z,95937.81
2019-06-26T20:26:32.638Z,95932.44
2019-06-26T20:29:02.980Z,95933.58
2019-06-26T20:31:33.049Z,95934.52
2019-06-26T20:34:03.074Z,95933.55
2019-06-26T20:39:16.615Z,95930.84
2019-06-26T20:41:46.546Z,95932.52
2019-06-26T20:44:16.589Z,95934.34
2019-06-26T20:46:47.044Z,95931.95
2019-06-26T20:49:18.371Z,95935.45
2019-06-26T20:51:51.338Z,95936.67
2019-06-26T20:54:21.355Z,95937.44
2019-06-26T20:56:51.488Z,95925.86
2019-06-26T20:59:21.791Z,95922.67
2019-06-26T21:01:51.895Z,95923.88
2019-06-26T21:04:21.842Z,95917.58
2019-06-26T21:06:52.233Z,95923.73
2019-06-26T21:09:22.248Z,95913.92
2019-06-26T21:11:52.192Z,95928.67
2019-06-26T21:14:22.232Z,95924.00
2019-06-26T21:16:52.407Z,95922.19
2019-06-26T21:19:22.354Z,95921.66
2019-06-26T21:21:52.631Z,95922.99
2019-06-26T21:24:22.800Z,95922.94
2019-06-26T21:26:52.704Z,95913.58
2019-06-26T21:29:22.767Z,95912.66
2019-06-26T21:31:53.017Z,95914.38
2019-06-26T21:34:23.054Z,95913.52
2019-06-26T21:36:53.073Z,95922.67
2019-06-26T21:39:23.205Z,95922.63
2019-06-26T21:41:53.363Z,95918.05
2019-06-26T21:44:23.578Z,95926.70
2019-06-26T21:46:53.546Z,95915.84
2019-06-26T21:49:23.548Z,95913.23
2019-06-26T21:51:53.617Z,95906.13
2019-06-26T21:54:23.832Z,95908.95
2019-06-26T21:56:53.835Z,95911.12
2019-06-26T21:59:24.167Z,95905.20
2019-06-26T22:01:54.155Z,95908.87
2019-06-26T22:04:24.438Z,95912.89
2019-06-26T22:06:54.743Z,95912.83
2019-06-26T22:09:25.080Z,95900.09
2019-06-26T22:11:54.963Z,95903.77
2019-06-26T22:14:25.137Z,95904.41
2019-06-26T22:16:55.428Z,95909.08
2019-06-26T22:19:25.755Z,95903.31
2019-06-26T22:21:55.819Z,95904.98
2019-06-26T22:24:25.858Z,95900.48
2019-06-26T22:26:56.221Z,95897.22
2019-06-26T22:29:26.454Z,95889.10
2019-06-26T22:31:56.436Z,95887.06
2019-06-26T22:34:26.471Z,95887.80
2019-06-26T22:36:56.697Z,95884.16
2019-06-26T22:39:26.694Z,95890.95
2019-06-26T22:41:57.102Z,95890.09
2019-06-26T22:44:27.435Z,95888.66
2019-06-26T22:46:57.427Z,95894.30
2019-06-26T22:49:27.517Z,95883.80
2019-06-26T22:51:57.839Z,95892.67
2019-06-26T22:54:28.189Z,95893.46
2019-06-26T22:56:58.351Z,95887.58
2019-06-26T22:59:28.303Z,95884.78
2019-06-26T23:01:58.451Z,95879.39
2019-06-26T23:04:28.767Z,95886.23
2019-06-26T23:06:58.856Z,95883.97
2019-06-26T23:09:28.777Z,95879.87
2019-06-26T23:11:59.237Z,95879.55
2019-06-26T23:14:29.502Z,95873.80
2019-06-26T23:16:59.441Z,95873.09
2019-06-26T23:19:29.512Z,95864.47
2019-06-26T23:21:59.765Z,95863.58
2019-06-26T23:24:30.013Z,95865.91
2019-06-26T23:27:00.080Z,95866.67
2019-06-26T23:29:30.015Z,95858.59
2019-06-26T23:32:03.297Z,95867.41
2019-06-26T23:34:32.297Z,95863.30
2019-06-26T23:37:02.248Z,95860.28
2019-06-26T23:39:32.339Z,95856.38
2019-06-26T23:42:02.587Z,95857.08
2019-06-26T23:44:32.721Z,95860.77
2019-06-26T23:47:02.629Z,95863.31
2019-06-26T23:49:32.671Z,95854.13
2019-06-26T23:52:02.890Z,95853.16
2019-06-26T23:54:33.102Z,95855.77
2019-06-26T23:57:03.334Z,95731.16
2019-06-26T23:59:33.605Z,95849.66
